Pagrindinis puslapis
METAR-TAF:

METAR-TAF

Oro uostai :

Ibagė, Kolumbija

platuma: 04-26N, ilguma: 075-09W, Aukštis: 928 m

Dabartinis oras

Ataskaita buvo paskelbta 50 minutes, ne 00:00 UTC
Vėjas 4 kt iš Šiaurės/Šiaurės Rytų
Temperatūra 24°C
Drėgmė 83%
Slėgis 1013 hPa
Matomumas 10 km arba daugiau
Išsisklaidę debesys ne aukštis 2700 ft
Su prošvaistėmis ne aukštis 10000 ft

METAR: SKIB 230000Z 03004KT 9999 SCT027 BKN100 24/21 A2991

Laikas: 19:50 (00:50 UTC)


TAF: trūkstamas

Orai ataskaitas ir orų prognozės (METAR, TAF).

turimą stotys yra geltonos ir raudonos taškus žemėlapyje.

Perkelti pele per norėdami pamatyti stoties vardą.

Tada spustelėkite, norėdami matyti oro stebėjimo ir prognozės.

Norėdami pakeisti žemėlapį: spustelėkite ant žalios mygtukų su juodo kryžiaus žemyn,; žalią mygtuką su brūkšneliu, jei norite nutolinti; arba žalių rodyklių gretimoms žemėlapius.


METAR-TAF: